createdAt,value
2018-05-15T00:00:47.432Z,989.30
2018-05-15T00:01:47.602Z,989.29
2018-05-15T00:02:47.793Z,989.28
2018-05-15T00:03:47.968Z,989.30
2018-05-15T00:04:48.156Z,989.28
2018-05-15T00:05:48.332Z,989.26
2018-05-15T00:06:48.516Z,989.28
2018-05-15T00:07:48.705Z,989.25
2018-05-15T00:08:48.895Z,989.24
2018-05-15T00:09:49.069Z,989.25
2018-05-15T00:10:49.251Z,989.27
2018-05-15T00:11:49.441Z,989.24
2018-05-15T00:12:49.615Z,989.24
2018-05-15T00:13:49.792Z,989.23
2018-05-15T00:14:49.974Z,989.25
2018-05-15T00:15:50.158Z,989.25
2018-05-15T00:16:50.347Z,989.24
2018-05-15T00:17:50.551Z,989.23
2018-05-15T00:18:50.731Z,989.22
2018-05-15T00:19:50.904Z,989.22
2018-05-15T00:20:51.085Z,989.23
2018-05-15T00:21:51.334Z,989.21
2018-05-15T00:22:51.445Z,989.20
2018-05-15T00:23:51.627Z,989.21
2018-05-15T00:24:51.810Z,989.24
2018-05-15T00:25:51.989Z,989.27
2018-05-15T00:26:52.176Z,989.25
2018-05-15T00:27:52.353Z,989.26
2018-05-15T00:28:52.529Z,989.28
2018-05-15T00:29:52.716Z,989.23
2018-05-15T00:30:52.895Z,989.23
2018-05-15T00:31:53.115Z,989.27
2018-05-15T00:32:53.263Z,989.23
2018-05-15T00:33:53.445Z,989.26
2018-05-15T00:34:53.621Z,989.30
2018-05-15T00:35:53.791Z,989.28
2018-05-15T00:36:53.977Z,989.34
2018-05-15T00:37:54.150Z,989.34
2018-05-15T00:38:54.328Z,989.33
2018-05-15T00:39:54.508Z,989.28
2018-05-15T00:40:54.689Z,989.35
2018-05-15T00:41:54.859Z,989.34
2018-05-15T00:42:55.043Z,989.33
2018-05-15T00:43:55.229Z,989.30
2018-05-15T00:44:55.406Z,989.30
2018-05-15T00:45:55.588Z,989.26
2018-05-15T00:46:55.766Z,989.30
2018-05-15T00:47:55.948Z,989.26
2018-05-15T00:48:56.133Z,989.27
2018-05-15T00:49:56.309Z,989.28
2018-05-15T00:50:56.497Z,989.27
2018-05-15T00:51:56.674Z,989.29
2018-05-15T00:52:56.851Z,989.30
2018-05-15T00:53:57.029Z,989.29
2018-05-15T00:54:57.215Z,989.30
2018-05-15T00:55:57.393Z,989.30
2018-05-15T00:56:57.577Z,989.27
2018-05-15T00:57:57.754Z,989.31
2018-05-15T00:58:57.940Z,989.25
2018-05-15T00:59:58.124Z,989.26
2018-05-15T01:00:58.308Z,989.22
2018-05-15T01:01:58.498Z,989.22
2018-05-15T01:02:58.674Z,989.19
2018-05-15T01:03:58.849Z,989.20
2018-05-15T01:04:59.031Z,989.17
2018-05-15T01:05:59.215Z,989.13
2018-05-15T01:06:59.395Z,989.11
2018-05-15T01:07:59.578Z,989.15
2018-05-15T01:08:59.750Z,989.15
2018-05-15T01:09:59.930Z,989.12
2018-05-15T01:11:00.113Z,989.14
2018-05-15T01:12:00.295Z,989.13
2018-05-15T01:13:00.469Z,989.18
2018-05-15T01:14:00.654Z,989.19
2018-05-15T01:15:00.831Z,989.20
2018-05-15T01:16:01.008Z,989.17
2018-05-15T01:17:01.195Z,989.18
2018-05-15T01:18:01.377Z,989.18
2018-05-15T01:19:01.558Z,989.15
2018-05-15T01:20:01.738Z,989.21
2018-05-15T01:21:01.915Z,989.21
2018-05-15T01:22:02.096Z,989.24
2018-05-15T01:23:02.283Z,989.18
2018-05-15T01:24:02.462Z,989.24
2018-05-15T01:25:02.651Z,989.28
2018-05-15T01:26:02.835Z,989.30
2018-05-15T01:27:03.015Z,989.28
2018-05-15T01:28:03.198Z,989.29
2018-05-15T01:29:03.380Z,989.27
2018-05-15T01:30:03.563Z,989.31
2018-05-15T01:31:03.759Z,989.35
2018-05-15T01:32:03.919Z,989.28
2018-05-15T01:33:04.097Z,989.34
2018-05-15T01:34:04.279Z,989.35
2018-05-15T01:35:04.465Z,989.33
2018-05-15T01:36:04.639Z,989.38
2018-05-15T01:37:04.815Z,989.32
2018-05-15T01:38:04.994Z,989.37
2018-05-15T01:39:05.178Z,989.32
2018-05-15T01:40:05.358Z,989.33
2018-05-15T01:41:05.536Z,989.32
2018-05-15T01:42:05.721Z,989.32
2018-05-15T01:43:05.909Z,989.33
2018-05-15T01:44:06.084Z,989.33
2018-05-15T01:45:06.260Z,989.34
2018-05-15T01:46:06.447Z,989.31
2018-05-15T01:47:06.627Z,989.31
2018-05-15T01:48:06.819Z,989.34
2018-05-15T01:49:07.004Z,989.34
2018-05-15T01:50:07.183Z,989.35
2018-05-15T01:51:07.366Z,989.34
2018-05-15T01:52:07.547Z,989.32
2018-05-15T01:53:07.731Z,989.34
2018-05-15T01:54:07.914Z,989.31
2018-05-15T01:55:08.097Z,989.35
2018-05-15T01:56:08.276Z,989.37
2018-05-15T01:57:08.456Z,989.34
2018-05-15T01:58:08.634Z,989.35
2018-05-15T01:59:08.808Z,989.29
2018-05-15T02:00:08.993Z,989.32
2018-05-15T02:01:09.169Z,989.34
2018-05-15T02:02:09.373Z,989.32
2018-05-15T02:03:09.567Z,989.36
2018-05-15T02:04:09.758Z,989.35
2018-05-15T02:05:09.942Z,989.31
2018-05-15T02:06:10.122Z,989.31
2018-05-15T02:07:10.306Z,989.31
2018-05-15T02:08:10.494Z,989.29
2018-05-15T02:09:10.678Z,989.30
2018-05-15T02:10:10.855Z,989.33
2018-05-15T02:11:11.036Z,989.33
2018-05-15T02:12:11.227Z,989.36
2018-05-15T02:13:11.404Z,989.43
2018-05-15T02:14:11.577Z,989.43
2018-05-15T02:15:11.779Z,989.41
2018-05-15T02:16:11.983Z,989.43
2018-05-15T02:17:12.148Z,989.44
2018-05-15T02:18:12.332Z,989.42
2018-05-15T02:19:12.509Z,989.47
2018-05-15T02:20:12.696Z,989.49
2018-05-15T02:21:12.881Z,989.52
2018-05-15T02:22:13.056Z,989.51
2018-05-15T02:23:13.236Z,989.53
2018-05-15T02:24:13.425Z,989.56
2018-05-15T02:25:13.609Z,989.53
2018-05-15T02:26:13.786Z,989.55
2018-05-15T02:27:13.973Z,989.57
2018-05-15T02:28:14.156Z,989.54
2018-05-15T02:29:14.330Z,989.50
2018-05-15T02:30:14.531Z,989.54
2018-05-15T02:31:14.710Z,989.51
2018-05-15T02:32:14.890Z,989.50
2018-05-15T02:33:15.069Z,989.49
2018-05-15T02:34:15.247Z,989.53
2018-05-15T02:35:23.492Z,989.54
2018-05-15T02:36:15.666Z,989.50
2018-05-15T02:37:15.846Z,989.48
2018-05-15T02:38:16.022Z,989.45
2018-05-15T02:39:16.195Z,989.50
2018-05-15T02:40:16.379Z,989.48
2018-05-15T02:41:16.564Z,989.50
2018-05-15T02:42:16.737Z,989.49
2018-05-15T02:43:16.924Z,989.52
2018-05-15T02:44:17.103Z,989.47
2018-05-15T02:45:17.287Z,989.48
2018-05-15T02:46:17.464Z,989.48
2018-05-15T02:47:17.642Z,989.49
2018-05-15T02:48:17.822Z,989.47
2018-05-15T02:49:18.003Z,989.46
2018-05-15T02:50:18.188Z,989.43
2018-05-15T02:51:18.369Z,989.45
2018-05-15T02:52:18.543Z,989.44
2018-05-15T02:53:18.729Z,989.47
2018-05-15T02:54:18.909Z,989.45
2018-05-15T02:55:19.085Z,989.47
2018-05-15T02:56:19.264Z,989.48
2018-05-15T02:57:19.447Z,989.51
2018-05-15T02:58:19.623Z,989.50
2018-05-15T02:59:19.794Z,989.51
2018-05-15T03:00:19.981Z,989.49
2018-05-15T03:01:20.158Z,989.46
2018-05-15T03:02:20.334Z,989.42
2018-05-15T03:03:20.520Z,989.45
2018-05-15T03:04:20.695Z,989.47
2018-05-15T03:05:20.877Z,989.44
2018-05-15T03:06:21.057Z,989.45
2018-05-15T03:07:21.231Z,989.41
2018-05-15T03:08:21.408Z,989.45
2018-05-15T03:09:21.586Z,989.46
2018-05-15T03:10:21.788Z,989.45
2018-05-15T03:11:21.950Z,989.48
2018-05-15T03:12:22.132Z,989.48
2018-05-15T03:13:22.318Z,989.45
2018-05-15T03:14:22.501Z,989.48
2018-05-15T03:15:22.682Z,989.50
2018-05-15T03:16:22.863Z,989.46
2018-05-15T03:17:23.052Z,989.48
2018-05-15T03:18:23.236Z,989.49
2018-05-15T03:19:23.420Z,989.47
2018-05-15T03:20:23.596Z,989.49
2018-05-15T03:21:23.785Z,989.54
2018-05-15T03:22:23.959Z,989.49
2018-05-15T03:23:24.148Z,989.54
2018-05-15T03:24:24.318Z,989.55
2018-05-15T03:25:24.494Z,989.57
2018-05-15T03:26:24.673Z,989.59
2018-05-15T03:27:24.843Z,989.59
2018-05-15T03:28:25.023Z,989.60
2018-05-15T03:29:25.213Z,989.63
2018-05-15T03:30:25.405Z,989.62
2018-05-15T03:31:25.595Z,989.64
2018-05-15T03:32:25.773Z,989.69
2018-05-15T03:33:25.958Z,989.70
2018-05-15T03:34:26.151Z,989.69
2018-05-15T03:35:26.343Z,989.73
2018-05-15T03:36:26.517Z,989.75
2018-05-15T03:37:26.696Z,989.69
2018-05-15T03:38:26.882Z,989.72
2018-05-15T03:39:27.066Z,989.69
2018-05-15T03:40:27.272Z,989.72
2018-05-15T03:41:27.449Z,989.71
2018-05-15T03:42:27.633Z,989.68
2018-05-15T03:43:27.821Z,989.66
2018-05-15T03:44:28.002Z,989.68
2018-05-15T03:45:28.179Z,989.66
2018-05-15T03:46:28.361Z,989.64
2018-05-15T03:47:28.544Z,989.66
2018-05-15T03:48:28.720Z,989.64
2018-05-15T03:49:28.906Z,989.65
2018-05-15T03:50:29.081Z,989.59
2018-05-15T03:51:29.261Z,989.64
2018-05-15T03:52:33.658Z,989.62
2018-05-15T03:53:32.619Z,989.60
2018-05-15T03:54:32.853Z,989.59
2018-05-15T03:55:34.221Z,989.57
2018-05-15T03:56:33.152Z,989.66
2018-05-15T03:57:34.194Z,989.65
2018-05-15T03:58:34.104Z,989.63
2018-05-15T03:59:34.541Z,989.67
2018-05-15T04:00:33.837Z,989.69
2018-05-15T04:01:34.374Z,989.68
2018-05-15T04:02:35.361Z,989.69
2018-05-15T04:03:35.745Z,989.72
2018-05-15T04:04:34.959Z,989.73
2018-05-15T04:05:36.526Z,989.74
2018-05-15T04:06:37.305Z,989.73
2018-05-15T04:07:36.109Z,989.74
2018-05-15T04:08:35.805Z,989.78
2018-05-15T04:09:37.885Z,989.77
2018-05-15T04:10:36.717Z,989.83
2018-05-15T04:11:34.220Z,989.82
2018-05-15T04:12:36.609Z,989.79
2018-05-15T04:13:33.653Z,989.84
2018-05-15T04:14:34.477Z,989.85
2018-05-15T04:15:34.883Z,989.84
2018-05-15T04:16:34.639Z,989.84
2018-05-15T04:17:33.537Z,989.82
2018-05-15T04:18:33.810Z,989.84
2018-05-15T04:19:33.676Z,989.84
2018-05-15T04:20:33.889Z,989.88
2018-05-15T04:21:34.067Z,989.86
2018-05-15T04:22:36.094Z,989.89
2018-05-15T04:23:34.399Z,989.93
2018-05-15T04:24:34.590Z,989.93
2018-05-15T04:25:34.776Z,989.98
2018-05-15T04:26:34.956Z,990.02
2018-05-15T04:27:35.138Z,990.02
2018-05-15T04:28:35.322Z,989.99
2018-05-15T04:29:35.507Z,990.00
2018-05-15T04:30:35.688Z,990.00
2018-05-15T04:31:39.602Z,990.02
2018-05-15T04:32:37.187Z,990.01
2018-05-15T04:33:38.453Z,990.01
2018-05-15T04:34:38.161Z,990.05
2018-05-15T04:35:38.147Z,990.05
2018-05-15T04:36:39.153Z,990.11
2018-05-15T04:37:39.454Z,990.12
2018-05-15T04:38:38.736Z,990.11
2018-05-15T04:39:39.815Z,990.14
2018-05-15T04:40:40.437Z,990.15
2018-05-15T04:41:38.190Z,990.11
2018-05-15T04:42:38.418Z,990.17
2018-05-15T04:43:38.409Z,990.23
2018-05-15T04:44:38.487Z,990.23
2018-05-15T04:45:45.844Z,990.25
2018-05-15T04:46:48.343Z,990.24
2018-05-15T04:47:45.965Z,990.27
2018-05-15T04:48:38.766Z,990.27
2018-05-15T04:49:41.677Z,990.31
2018-05-15T04:50:50.854Z,990.27
2018-05-15T04:51:48.853Z,990.35
2018-05-15T04:52:49.402Z,990.32
2018-05-15T04:53:41.897Z,990.36
2018-05-15T04:54:41.568Z,990.36
2018-05-15T04:55:42.491Z,990.38
2018-05-15T04:56:42.263Z,990.36
2018-05-15T04:57:41.653Z,990.37
2018-05-15T04:58:44.043Z,990.37
2018-05-15T04:59:42.812Z,990.38
2018-05-15T05:00:42.021Z,990.43
2018-05-15T05:01:42.408Z,990.39
2018-05-15T05:02:42.159Z,990.47
2018-05-15T05:03:41.340Z,990.45
2018-05-15T05:04:41.563Z,990.50
2018-05-15T05:05:41.748Z,990.45
2018-05-15T05:06:41.950Z,990.43
2018-05-15T05:07:42.120Z,990.38
2018-05-15T05:08:44.842Z,990.43
2018-05-15T05:09:42.693Z,990.40
2018-05-15T05:10:42.564Z,990.44
2018-05-15T05:11:42.772Z,990.46
2018-05-15T05:12:42.936Z,990.48
2018-05-15T05:13:43.115Z,990.54
2018-05-15T05:14:43.329Z,990.55
2018-05-15T05:15:43.516Z,990.59
2018-05-15T05:16:43.694Z,990.57
2018-05-15T05:17:43.880Z,990.57
2018-05-15T05:18:44.065Z,990.61
2018-05-15T05:19:44.242Z,990.59
2018-05-15T05:20:46.928Z,990.61
2018-05-15T05:21:44.576Z,990.65
2018-05-15T05:22:44.752Z,990.63
2018-05-15T05:23:44.942Z,990.64
2018-05-15T05:24:45.120Z,990.67
2018-05-15T05:25:45.323Z,990.68
2018-05-15T05:26:45.515Z,990.70
2018-05-15T05:27:45.708Z,990.67
2018-05-15T05:28:48.401Z,990.70
2018-05-15T05:29:46.008Z,990.72
2018-05-15T05:30:46.210Z,990.72
2018-05-15T05:31:46.371Z,990.72
2018-05-15T05:32:46.569Z,990.70
2018-05-15T05:33:46.763Z,990.70
2018-05-15T05:34:46.934Z,990.72
2018-05-15T05:35:47.112Z,990.75
2018-05-15T05:36:47.316Z,990.74
2018-05-15T05:37:47.647Z,990.76
2018-05-15T05:38:47.653Z,990.78
2018-05-15T05:39:47.847Z,990.73
2018-05-15T05:40:48.029Z,990.80
2018-05-15T05:41:48.207Z,990.77
2018-05-15T05:42:48.382Z,990.85
2018-05-15T05:43:48.568Z,990.88
2018-05-15T05:44:48.766Z,990.85
2018-05-15T05:45:48.943Z,990.84
2018-05-15T05:46:49.125Z,990.91
2018-05-15T05:47:49.313Z,990.91
2018-05-15T05:48:49.511Z,990.98
2018-05-15T05:49:49.685Z,990.95
2018-05-15T05:50:49.866Z,990.98
2018-05-15T05:51:50.055Z,990.98
2018-05-15T05:52:50.333Z,991.06
2018-05-15T05:53:50.394Z,991.05
2018-05-15T05:54:50.574Z,991.05
2018-05-15T05:55:50.763Z,991.07
2018-05-15T05:56:50.944Z,991.12
2018-05-15T05:57:51.124Z,991.15
2018-05-15T05:58:51.309Z,991.19
2018-05-15T05:59:51.497Z,991.21
2018-05-15T06:00:51.671Z,991.15
2018-05-15T06:01:51.853Z,991.26
2018-05-15T06:02:52.035Z,991.25
2018-05-15T06:03:52.220Z,991.36
2018-05-15T06:04:52.404Z,991.40
2018-05-15T06:05:52.591Z,991.43
2018-05-15T06:06:52.770Z,991.38
2018-05-15T06:07:52.959Z,991.53
2018-05-15T06:08:53.141Z,991.55
2018-05-15T06:09:53.326Z,991.57
2018-05-15T06:10:53.513Z,991.44
2018-05-15T06:11:53.694Z,991.58
2018-05-15T06:12:53.878Z,991.61
2018-05-15T06:13:54.064Z,991.61
2018-05-15T06:14:54.248Z,991.55
2018-05-15T06:15:54.438Z,991.42
2018-05-15T06:16:54.621Z,991.39
2018-05-15T06:17:54.805Z,991.41
2018-05-15T06:18:54.993Z,991.35
2018-05-15T06:19:55.175Z,991.37
2018-05-15T06:20:55.388Z,991.33
2018-05-15T06:21:55.538Z,991.36
2018-05-15T06:22:55.734Z,991.28
2018-05-15T06:23:55.918Z,991.31
2018-05-15T06:24:56.098Z,991.31
2018-05-15T06:25:56.283Z,991.27
2018-05-15T06:26:56.469Z,991.22
2018-05-15T06:27:56.653Z,991.30
2018-05-15T06:28:56.843Z,991.38
2018-05-15T06:29:57.025Z,991.36
2018-05-15T06:30:57.221Z,991.29
2018-05-15T06:31:57.407Z,991.22
2018-05-15T06:32:57.584Z,991.29
2018-05-15T06:33:57.772Z,991.27
2018-05-15T06:34:57.962Z,991.31
2018-05-15T06:35:58.145Z,991.29
2018-05-15T06:36:58.331Z,991.32
2018-05-15T06:37:58.528Z,991.39
2018-05-15T06:38:58.720Z,991.35
2018-05-15T06:39:58.906Z,991.37
2018-05-15T06:40:59.090Z,991.39
2018-05-15T06:41:59.271Z,991.44
2018-05-15T06:42:59.456Z,991.41
2018-05-15T06:43:59.643Z,991.45
2018-05-15T06:44:59.825Z,991.55
2018-05-15T06:46:00.015Z,991.55
2018-05-15T06:47:00.208Z,991.63
2018-05-15T06:48:00.391Z,991.58
2018-05-15T06:49:00.574Z,991.71
2018-05-15T06:50:00.767Z,991.68
2018-05-15T06:51:00.947Z,991.77
2018-05-15T06:52:01.139Z,992.05
2018-05-15T06:53:01.323Z,992.25
2018-05-15T06:54:01.515Z,992.50
2018-05-15T06:55:01.704Z,992.57
2018-05-15T06:56:01.990Z,992.52
2018-05-15T06:57:02.085Z,992.58
2018-05-15T06:58:02.270Z,992.38
2018-05-15T06:59:02.470Z,992.46
2018-05-15T07:00:02.661Z,992.42
2018-05-15T07:01:02.850Z,992.20
2018-05-15T07:02:03.043Z,992.56
2018-05-15T07:03:03.237Z,992.55
2018-05-15T07:04:03.425Z,992.58
2018-05-15T07:05:03.615Z,992.60
2018-05-15T07:06:03.805Z,992.60
2018-05-15T07:07:03.996Z,992.56
2018-05-15T07:08:04.192Z,992.63
2018-05-15T07:09:04.383Z,992.61
2018-05-15T07:10:04.565Z,992.69
2018-05-15T07:11:04.760Z,992.65
2018-05-15T07:12:04.959Z,992.71
2018-05-15T07:13:05.143Z,992.60
2018-05-15T07:14:05.415Z,992.55
2018-05-15T07:15:05.541Z,992.66
2018-05-15T07:16:05.767Z,992.73
2018-05-15T07:17:05.956Z,992.69
2018-05-15T07:18:06.147Z,992.50
2018-05-15T07:19:06.387Z,992.81
2018-05-15T07:20:06.465Z,992.87
2018-05-15T07:21:06.652Z,992.61
2018-05-15T07:22:06.851Z,992.48
2018-05-15T07:23:07.041Z,992.46
2018-05-15T07:24:07.232Z,992.60
2018-05-15T07:25:07.519Z,992.61
2018-05-15T07:26:07.649Z,992.61
2018-05-15T07:27:07.843Z,992.79
2018-05-15T07:28:08.045Z,992.82
2018-05-15T07:29:08.356Z,992.64
2018-05-15T07:30:08.430Z,992.45
2018-05-15T07:31:08.617Z,992.39
2018-05-15T07:32:08.821Z,992.57
2018-05-15T07:33:09.050Z,992.74
2018-05-15T07:34:09.242Z,992.80
2018-05-15T07:35:09.712Z,992.57
2018-05-15T07:36:09.861Z,992.58
2018-05-15T07:37:10.183Z,992.56
2018-05-15T07:38:10.449Z,992.60
2018-05-15T07:39:10.366Z,992.62
2018-05-15T07:40:10.806Z,992.72
2018-05-15T07:41:10.859Z,992.55
2018-05-15T07:42:10.996Z,992.61
2018-05-15T07:43:11.340Z,992.62
2018-05-15T07:44:11.412Z,992.73
2018-05-15T07:45:11.581Z,992.59
2018-05-15T07:46:11.709Z,992.62
2018-05-15T07:47:12.216Z,992.53
2018-05-15T07:48:12.282Z,992.53
2018-05-15T07:49:12.124Z,992.43
2018-05-15T07:50:12.399Z,992.26
2018-05-15T07:51:12.498Z,992.44
2018-05-15T07:52:12.686Z,992.41
2018-05-15T07:53:12.784Z,992.45
2018-05-15T07:54:13.069Z,992.27
2018-05-15T07:55:13.032Z,992.29
2018-05-15T07:56:13.122Z,992.22
2018-05-15T07:57:13.207Z,992.38
2018-05-15T07:58:13.694Z,992.48
2018-05-15T07:59:13.882Z,992.56
2018-05-15T08:00:13.875Z,992.51
2018-05-15T08:01:14.140Z,992.64
2018-05-15T08:02:14.335Z,992.61
2018-05-15T08:03:14.443Z,992.50
2018-05-15T08:04:14.324Z,992.54
2018-05-15T08:05:15.302Z,991.98
2018-05-15T08:06:14.991Z,991.78
2018-05-15T08:07:15.116Z,991.80
2018-05-15T08:08:15.251Z,992.16
2018-05-15T08:09:15.371Z,992.16
2018-05-15T08:10:15.451Z,992.55
2018-05-15T08:11:15.800Z,992.65
2018-05-15T08:12:15.902Z,992.48
2018-05-15T08:13:16.037Z,992.20
2018-05-15T08:14:16.200Z,992.37
2018-05-15T08:15:19.188Z,992.33
2018-05-15T08:16:18.607Z,992.32
2018-05-15T08:17:17.597Z,992.22
2018-05-15T08:18:17.405Z,992.04
2018-05-15T08:19:17.113Z,992.32
2018-05-15T08:20:17.872Z,992.36
2018-05-15T08:21:17.451Z,992.43
2018-05-15T08:22:17.711Z,992.51
2018-05-15T08:23:18.737Z,992.47
2018-05-15T08:24:18.030Z,992.61
2018-05-15T08:25:18.142Z,992.54
2018-05-15T08:26:18.478Z,992.61
2018-05-15T08:27:18.686Z,992.56
2018-05-15T08:28:18.713Z,992.51
2018-05-15T08:29:18.891Z,992.49
2018-05-15T08:30:19.025Z,992.61
2018-05-15T08:31:19.176Z,992.69
2018-05-15T08:32:19.296Z,992.60
2018-05-15T08:33:19.403Z,992.49
2018-05-15T08:34:19.375Z,992.47
2018-05-15T08:35:20.390Z,992.49
2018-05-15T08:36:22.650Z,992.59
2018-05-15T08:37:21.807Z,992.69
2018-05-15T08:38:22.817Z,992.65
2018-05-15T08:39:25.627Z,992.75
2018-05-15T08:40:22.360Z,992.78
2018-05-15T08:41:24.332Z,992.68
2018-05-15T08:42:24.937Z,992.69
2018-05-15T08:43:22.555Z,992.66
2018-05-15T08:44:24.753Z,992.64
2018-05-15T08:45:23.917Z,992.65
2018-05-15T08:46:24.006Z,992.62
2018-05-15T08:47:26.047Z,992.62
2018-05-15T08:48:23.666Z,992.64
2018-05-15T08:49:23.749Z,992.66
2018-05-15T08:50:23.181Z,992.62
2018-05-15T08:51:25.481Z,992.58
2018-05-15T08:52:32.538Z,992.59
2018-05-15T08:53:24.013Z,992.70
2018-05-15T08:54:24.885Z,992.68
2018-05-15T08:55:25.638Z,992.71
2018-05-15T08:56:26.493Z,992.66
2018-05-15T08:57:25.076Z,992.54
2018-05-15T08:58:24.514Z,992.63
2018-05-15T08:59:26.450Z,992.64
2018-05-15T09:00:26.161Z,992.59
2018-05-15T09:01:26.784Z,992.61
2018-05-15T09:02:24.882Z,992.64
2018-05-15T09:03:26.165Z,992.67
2018-05-15T09:04:25.546Z,992.68
2018-05-15T09:05:25.783Z,992.62
2018-05-15T09:06:25.530Z,992.64
2018-05-15T09:07:25.495Z,992.63
2018-05-15T09:08:25.712Z,992.68
2018-05-15T09:09:25.972Z,992.69
2018-05-15T09:10:26.177Z,992.66
2018-05-15T09:11:26.282Z,992.61
2018-05-15T09:12:26.509Z,992.77
2018-05-15T09:13:26.592Z,992.63
2018-05-15T09:14:26.809Z,992.57
2018-05-15T09:15:26.611Z,992.59
2018-05-15T09:16:26.817Z,992.67
2018-05-15T09:17:27.011Z,992.60
2018-05-15T09:18:27.192Z,992.66
2018-05-15T09:19:27.391Z,992.67
2018-05-15T09:20:27.580Z,992.77
2018-05-15T09:21:27.776Z,992.78
2018-05-15T09:22:28.028Z,992.85
2018-05-15T09:23:28.128Z,992.77
2018-05-15T09:24:28.312Z,992.80
2018-05-15T09:25:28.504Z,992.11
2018-05-15T09:26:28.729Z,992.82
2018-05-15T09:27:29.924Z,992.66
2018-05-15T09:28:29.108Z,992.76
2018-05-15T09:29:29.301Z,992.76
2018-05-15T09:30:29.505Z,992.68
2018-05-15T09:31:29.706Z,992.83
2018-05-15T09:32:30.243Z,992.76
2018-05-15T09:33:30.133Z,992.61
2018-05-15T09:34:30.269Z,992.74
2018-05-15T09:35:30.335Z,992.75
2018-05-15T09:36:30.556Z,992.73
2018-05-15T09:37:30.754Z,992.71
2018-05-15T09:38:30.940Z,992.69
2018-05-15T09:39:31.131Z,992.27
2018-05-15T09:40:31.450Z,992.03
2018-05-15T09:41:31.561Z,992.54
2018-05-15T09:42:31.644Z,992.71
2018-05-15T09:43:31.855Z,992.67
2018-05-15T09:44:32.082Z,992.29
2018-05-15T09:45:32.187Z,992.14
2018-05-15T09:46:33.353Z,992.47
2018-05-15T09:47:32.570Z,992.16
2018-05-15T09:48:32.764Z,992.30
2018-05-15T09:49:32.891Z,992.10
2018-05-15T09:50:33.087Z,991.87
2018-05-15T09:51:33.221Z,991.84
2018-05-15T09:52:33.293Z,991.80
2018-05-15T09:53:33.537Z,991.94
2018-05-15T09:54:33.638Z,992.55
2018-05-15T09:55:33.824Z,992.53
2018-05-15T09:56:34.039Z,992.36
2018-05-15T09:57:34.615Z,992.28
2018-05-15T09:58:34.413Z,992.18
2018-05-15T09:59:34.607Z,991.90
2018-05-15T10:00:34.815Z,991.89
2018-05-15T10:01:35.012Z,991.99
2018-05-15T10:02:35.225Z,992.32
2018-05-15T10:03:35.431Z,992.22
2018-05-15T10:04:35.768Z,992.13
2018-05-15T10:05:35.855Z,992.50
2018-05-15T10:06:36.032Z,992.44
2018-05-15T10:07:36.328Z,992.16
2018-05-15T10:08:36.418Z,992.07
2018-05-15T10:09:37.701Z,992.27
2018-05-15T10:10:36.847Z,992.35
2018-05-15T10:11:37.031Z,992.30
2018-05-15T10:12:37.223Z,992.58
2018-05-15T10:13:37.895Z,992.66
2018-05-15T10:14:38.120Z,992.51
2018-05-15T10:15:38.074Z,992.41
2018-05-15T10:16:38.723Z,991.82
2018-05-15T10:17:38.555Z,991.81
2018-05-15T10:18:38.396Z,991.74
2018-05-15T10:19:38.604Z,991.70
2018-05-15T10:20:38.795Z,991.73
2018-05-15T10:21:38.992Z,991.75
2018-05-15T10:22:39.186Z,991.75
2018-05-15T10:23:39.383Z,991.92
2018-05-15T10:24:39.575Z,991.82
2018-05-15T10:25:39.792Z,991.66
2018-05-15T10:26:39.996Z,991.59
2018-05-15T10:27:40.192Z,991.60
2018-05-15T10:28:40.429Z,991.57
2018-05-15T10:29:40.513Z,991.56
2018-05-15T10:30:40.700Z,991.62
2018-05-15T10:31:40.900Z,991.61
2018-05-15T10:32:41.095Z,991.57
2018-05-15T10:33:41.289Z,991.74
2018-05-15T10:34:41.475Z,991.74
2018-05-15T10:35:41.672Z,991.72
2018-05-15T10:36:41.858Z,991.61
2018-05-15T10:37:42.051Z,991.62
2018-05-15T10:38:42.238Z,991.59
2018-05-15T10:39:42.454Z,991.56
2018-05-15T10:40:42.653Z,991.54
2018-05-15T10:41:42.837Z,991.57
2018-05-15T10:42:43.024Z,991.60
2018-05-15T10:43:43.210Z,991.50
2018-05-15T10:44:43.397Z,991.49
2018-05-15T10:45:44.940Z,991.51
2018-05-15T10:46:43.708Z,991.52
2018-05-15T10:47:43.891Z,991.53
2018-05-15T10:48:44.085Z,991.51
2018-05-15T10:49:44.275Z,991.47
2018-05-15T10:50:44.555Z,991.45
2018-05-15T10:51:44.726Z,991.42
2018-05-15T10:52:44.852Z,991.49
2018-05-15T10:53:45.038Z,991.42
2018-05-15T10:54:45.239Z,991.43
2018-05-15T10:55:45.435Z,991.49
2018-05-15T10:56:45.628Z,991.45
2018-05-15T10:57:45.827Z,991.45
2018-05-15T10:58:46.027Z,991.43
2018-05-15T10:59:46.415Z,991.47
2018-05-15T11:00:46.438Z,991.43
2018-05-15T11:01:46.635Z,991.41
2018-05-15T11:02:46.832Z,991.43
2018-05-15T11:03:47.019Z,991.43
2018-05-15T11:04:47.212Z,991.40
2018-05-15T11:05:47.546Z,991.40
2018-05-15T11:06:47.608Z,991.34
2018-05-15T11:07:48.764Z,991.39
2018-05-15T11:08:48.837Z,991.35
2018-05-15T11:09:51.384Z,991.28
2018-05-15T11:10:48.291Z,991.34
2018-05-15T11:11:48.483Z,991.23
2018-05-15T11:12:48.770Z,991.21
2018-05-15T11:13:49.465Z,991.18
2018-05-15T11:14:49.165Z,991.20
2018-05-15T11:15:49.153Z,991.21
2018-05-15T11:16:49.382Z,991.18
2018-05-15T11:17:49.567Z,991.21
2018-05-15T11:18:49.765Z,991.11
2018-05-15T11:19:50.099Z,991.01
2018-05-15T11:20:50.163Z,991.02
2018-05-15T11:21:50.351Z,991.03
2018-05-15T11:22:50.539Z,990.99
2018-05-15T11:23:50.736Z,991.02
2018-05-15T11:24:50.961Z,991.05
2018-05-15T11:25:51.141Z,990.96
2018-05-15T11:26:52.840Z,991.00
2018-05-15T11:27:51.501Z,991.00
2018-05-15T11:28:51.725Z,990.97
2018-05-15T11:29:51.996Z,991.03
2018-05-15T11:30:52.123Z,990.98
2018-05-15T11:31:52.348Z,990.99
2018-05-15T11:32:52.518Z,991.02
2018-05-15T11:33:52.849Z,991.03
2018-05-15T11:34:52.913Z,991.05
2018-05-15T11:35:53.145Z,991.15
2018-05-15T11:36:53.294Z,991.10
2018-05-15T11:37:55.245Z,991.14
2018-05-15T11:38:57.197Z,991.12
2018-05-15T11:39:56.080Z,991.13
2018-05-15T11:40:55.044Z,991.17
2018-05-15T11:41:54.250Z,991.13
2018-05-15T11:42:54.739Z,991.07
2018-05-15T11:43:55.837Z,991.08
2018-05-15T11:44:54.806Z,991.08
2018-05-15T11:45:54.987Z,991.09
2018-05-15T11:46:55.181Z,991.07
2018-05-15T11:47:55.733Z,991.10
2018-05-15T11:48:56.271Z,991.09
2018-05-15T11:49:56.640Z,991.07
2018-05-15T11:50:56.609Z,991.05
2018-05-15T11:51:57.093Z,991.03
2018-05-15T11:52:57.329Z,991.05
2018-05-15T11:53:56.745Z,991.09
2018-05-15T11:54:57.057Z,991.05
2018-05-15T11:55:57.116Z,991.07
2018-05-15T11:56:57.013Z,991.09
2018-05-15T11:57:57.207Z,991.08
2018-05-15T11:58:57.387Z,991.09
2018-05-15T11:59:57.672Z,991.08
2018-05-15T12:00:57.771Z,991.11
2018-05-15T12:01:57.954Z,991.13
2018-05-15T12:02:58.141Z,991.14
2018-05-15T12:03:58.434Z,991.11
2018-05-15T12:04:58.521Z,991.08
2018-05-15T12:05:58.725Z,991.05
2018-05-15T12:06:58.910Z,991.06
2018-05-15T12:07:59.106Z,991.00
2018-05-15T12:08:59.303Z,991.03
2018-05-15T12:09:59.478Z,991.00
2018-05-15T12:11:00.283Z,990.90
2018-05-15T12:11:59.910Z,990.87
2018-05-15T12:13:00.064Z,990.88
2018-05-15T12:14:00.256Z,990.86
2018-05-15T12:15:00.531Z,990.85
2018-05-15T12:16:00.722Z,990.74
2018-05-15T12:17:00.835Z,990.79
2018-05-15T12:18:01.035Z,990.83
2018-05-15T12:19:01.292Z,990.78
2018-05-15T12:20:01.485Z,990.79
2018-05-15T12:21:01.570Z,990.80
2018-05-15T12:22:01.737Z,990.83
2018-05-15T12:23:01.805Z,990.83
2018-05-15T12:24:01.988Z,990.81
2018-05-15T12:25:02.247Z,990.78
2018-05-15T12:26:02.379Z,990.81
2018-05-15T12:27:02.507Z,990.76
2018-05-15T12:28:02.655Z,990.79
2018-05-15T12:29:02.884Z,990.77
2018-05-15T12:30:02.926Z,990.73
2018-05-15T12:31:03.154Z,990.72